Time;durP1;ratioP1;P1;durP2;ratioP2;P2;SDS_P1;SDS_P2;PMS_P1;PMS_P2;Temp;Humidity;BMP_temperature;BMP_pressure;BME280_temperature;BME280_humidity;BME280_pressure;Samples;Min_cycle;Max_cycle;Signal;HPM_P1;HPM_P2
2022/05/02 00:00:20;;;;;;;9.90;7.23;;;14.20;99.90;;;;;;5061345;28;20481;-80
2022/05/02 00:02:49;;;;;;;7.83;6.97;;;14.30;99.90;;;;;;5061774;28;20460;-79
2022/05/02 00:05:18;;;;;;;9.83;6.87;;;14.20;99.90;;;;;;5062443;28;20939;-80
2022/05/02 00:07:46;;;;;;;6.77;6.03;;;14.20;99.90;;;;;;5065929;28;20457;-79
2022/05/02 00:10:16;;;;;;;7.00;6.40;;;14.10;99.90;;;;;;5066485;28;20482;-81
2022/05/02 00:12:45;;;;;;;8.00;6.37;;;14.00;99.90;;;;;;5062999;28;20479;-80
2022/05/02 00:15:13;;;;;;;11.40;6.87;;;14.00;99.90;;;;;;5057460;28;20469;-80
2022/05/02 00:17:57;;;;;;;9.67;6.77;;;14.00;99.90;;;;;;5062878;28;20458;-81
2022/05/02 00:20:27;;;;;;;7.07;6.37;;;14.00;99.90;;;;;;5059887;28;20495;-79
2022/05/02 00:22:56;;;;;;;7.80;7.00;;;14.00;99.90;;;;;;5064222;28;20463;-81
2022/05/02 00:25:27;;;;;;;8.27;6.70;;;13.90;99.90;;;;;;5056516;28;20448;-79
2022/05/02 00:27:55;;;;;;;8.93;7.03;;;13.90;99.90;;;;;;5059017;28;20468;-79
2022/05/02 00:30:24;;;;;;;8.20;6.70;;;13.90;99.90;;;;;;5059907;28;20488;-80
2022/05/02 00:32:52;;;;;;;8.33;6.70;;;13.90;99.90;;;;;;5056351;28;20468;-80
2022/05/02 00:35:21;;;;;;;8.50;7.00;;;13.80;99.90;;;;;;5059659;28;20454;-80
2022/05/02 00:37:49;;;;;;;7.50;6.80;;;13.90;99.90;;;;;;5060920;28;20514;-80
2022/05/02 00:40:18;;;;;;;9.93;6.50;;;13.80;99.90;;;;;;5064240;28;20477;-81
2022/05/02 00:42:48;;;;;;;7.73;6.93;;;13.80;99.90;;;;;;5059910;28;20462;-79
2022/05/02 00:45:18;;;;;;;8.20;7.37;;;13.80;99.90;;;;;;5059436;28;20448;-80
2022/05/02 00:47:54;;;;;;;7.60;6.60;;;13.80;99.90;;;;;;5061708;28;20496;-81
2022/05/02 00:50:33;;;;;;;7.20;6.43;;;13.70;99.90;;;;;;5062741;28;20481;-81
2022/05/02 00:53:02;;;;;;;7.60;6.63;;;13.70;99.90;;;;;;5062956;28;20468;-80
2022/05/02 00:55:31;;;;;;;8.80;6.87;;;13.70;99.90;;;;;;5062553;28;20448;-79
2022/05/02 00:58:02;;;;;;;7.40;6.23;;;13.60;99.90;;;;;;5062610;28;20451;-80
2022/05/02 01:00:32;;;;;;;10.00;7.73;;;13.70;99.90;;;;;;5059133;28;20471;-79
2022/05/02 01:03:01;;;;;;;8.53;6.40;;;13.50;99.90;;;;;;5062627;28;20911;-81
2022/05/02 01:05:30;;;;;;;8.03;6.60;;;13.50;99.90;;;;;;5061175;28;20554;-81
2022/05/02 01:07:57;;;;;;;12.13;7.67;;;13.60;99.90;;;;;;5061682;28;20467;-78
2022/05/02 01:10:27;;;;;;;8.63;7.70;;;13.60;99.90;;;;;;5056429;28;20514;-80
2022/05/02 01:12:55;;;;;;;8.30;7.00;;;13.40;99.90;;;;;;5055334;28;22025;-81
2022/05/02 01:15:25;;;;;;;8.77;7.83;;;13.40;99.90;;;;;;5053756;28;20440;-80
2022/05/02 01:17:53;;;;;;;7.80;6.97;;;13.40;99.90;;;;;;5061467;28;20447;-81
2022/05/02 01:20:23;;;;;;;8.40;6.90;;;13.40;99.90;;;;;;5059209;28;20481;-81
2022/05/02 01:22:51;;;;;;;9.47;8.10;;;13.30;99.90;;;;;;5061910;28;20483;-81
2022/05/02 01:25:19;;;;;;;10.43;7.63;;;13.40;99.90;;;;;;5057312;28;20454;-81
2022/05/02 01:27:47;;;;;;;11.40;7.97;;;13.40;99.90;;;;;;5067108;28;21198;-82
2022/05/02 01:30:15;;;;;;;10.07;7.30;;;13.40;99.90;;;;;;5063585;28;20478;-80
2022/05/02 01:32:43;;;;;;;7.70;6.20;;;13.40;99.90;;;;;;5066490;28;20441;-80
2022/05/02 01:35:12;;;;;;;9.47;6.87;;;13.30;99.90;;;;;;5068144;28;20512;-81
2022/05/02 01:37:41;;;;;;;6.67;5.63;;;13.30;99.90;;;;;;5099334;28;20478;-80
2022/05/02 01:40:11;;;;;;;7.73;6.40;;;13.20;99.90;;;;;;5067474;28;20476;-80
2022/05/02 01:42:40;;;;;;;13.70;7.37;;;13.20;99.90;;;;;;5065988;28;20469;-81
2022/05/02 01:45:09;;;;;;;7.63;6.27;;;13.20;99.90;;;;;;5064718;28;20461;-81
2022/05/02 01:47:37;;;;;;;7.97;7.17;;;13.20;99.90;;;;;;5058397;28;20446;-81
2022/05/02 01:50:06;;;;;;;8.73;7.00;;;13.20;99.90;;;;;;5064742;28;20456;-81
2022/05/02 01:52:34;;;;;;;7.20;6.40;;;13.20;99.90;;;;;;5067515;28;20448;-80
2022/05/02 01:55:03;;;;;;;7.33;6.07;;;13.20;99.90;;;;;;5067358;28;20460;-80
2022/05/02 01:57:32;;;;;;;8.20;6.10;;;13.10;99.90;;;;;;5065045;28;20518;-79
2022/05/02 02:00:00;;;;;;;6.70;5.97;;;13.00;99.90;;;;;;5062941;28;20480;-81
2022/05/02 02:02:28;;;;;;;7.77;6.40;;;13.00;99.90;;;;;;5064095;28;20475;-80
2022/05/02 02:07:47;;;;;;;9.20;7.03;;;13.00;99.90;;;;;;5052302;28;20488;-81
2022/05/02 02:10:17;;;;;;;6.60;5.50;;;13.00;99.90;;;;;;5063282;28;20474;-80
2022/05/02 02:12:45;;;;;;;11.00;6.47;;;12.90;99.90;;;;;;5064773;28;20573;-80
2022/05/02 02:15:14;;;;;;;8.60;7.57;;;12.90;99.90;;;;;;5060294;28;20883;-80
2022/05/02 02:17:43;;;;;;;6.73;6.03;;;13.00;99.90;;;;;;5096085;28;20474;-80
2022/05/02 02:20:12;;;;;;;7.00;6.30;;;13.00;99.90;;;;;;5064301;28;20481;-80
2022/05/02 02:22:41;;;;;;;6.87;6.23;;;12.90;99.90;;;;;;5062359;28;20898;-78
2022/05/02 02:25:09;;;;;;;9.50;6.63;;;12.90;99.90;;;;;;5064315;28;20469;-80
2022/05/02 02:27:39;;;;;;;8.47;5.70;;;12.70;99.90;;;;;;5069629;28;20550;-81
2022/05/02 02:30:09;;;;;;;8.07;6.00;;;12.70;99.90;;;;;;5067898;28;20454;-80
2022/05/02 02:32:37;;;;;;;9.07;6.93;;;12.80;99.90;;;;;;5062785;28;20541;-80
2022/05/02 02:35:06;;;;;;;8.00;7.00;;;12.80;99.90;;;;;;5063863;28;20447;-78
2022/05/02 02:37:34;;;;;;;10.63;7.00;;;12.80;99.90;;;;;;5061769;28;20499;-80
2022/05/02 02:40:03;;;;;;;13.20;6.53;;;12.80;99.90;;;;;;5064673;28;20467;-80
2022/05/02 02:42:32;;;;;;;9.43;6.63;;;12.80;99.90;;;;;;5066179;28;20476;-80
2022/05/02 02:45:01;;;;;;;7.93;6.47;;;12.90;99.90;;;;;;5063780;28;20449;-80
2022/05/02 02:47:29;;;;;;;9.50;7.30;;;12.90;99.90;;;;;;5062763;28;20968;-80
2022/05/02 02:49:57;;;;;;;8.87;7.20;;;12.80;99.90;;;;;;5066018;28;20458;-80
2022/05/02 02:52:25;;;;;;;10.00;7.33;;;12.80;99.90;;;;;;5061236;28;20455;-80
2022/05/02 02:54:54;;;;;;;7.63;6.80;;;12.80;99.90;;;;;;5062033;28;20479;-80
2022/05/02 02:57:22;;;;;;;8.67;7.40;;;12.80;99.90;;;;;;5067960;28;20461;-80
2022/05/02 02:59:50;;;;;;;6.60;6.00;;;12.80;99.90;;;;;;5061909;28;20789;-79
2022/05/02 03:02:20;;;;;;;9.97;7.37;;;12.70;99.90;;;;;;5059292;28;21041;-81
2022/05/02 03:07:35;;;;;;;10.10;9.10;;;12.70;99.90;;;;;;5063082;28;20473;-79
2022/05/02 03:10:05;;;;;;;7.97;6.97;;;12.60;99.90;;;;;;5056726;28;20466;-80
2022/05/02 03:12:33;;;;;;;6.67;5.90;;;12.60;99.90;;;;;;5065271;28;20907;-80
2022/05/02 03:15:01;;;;;;;9.40;7.30;;;12.60;99.90;;;;;;5055488;28;20871;-79
2022/05/02 03:17:31;;;;;;;7.47;6.70;;;12.60;99.90;;;;;;5064922;28;20504;-81
2022/05/02 03:19:59;;;;;;;7.10;6.23;;;12.60;99.90;;;;;;5060234;28;20451;-81
2022/05/02 03:22:27;;;;;;;9.17;6.73;;;12.60;99.90;;;;;;5063333;28;20478;-79
2022/05/02 03:24:55;;;;;;;9.47;7.43;;;12.50;99.90;;;;;;5060803;28;20454;-80
2022/05/02 03:27:23;;;;;;;9.40;7.07;;;12.60;99.90;;;;;;5059240;28;20460;-80
2022/05/02 03:29:51;;;;;;;8.27;7.23;;;12.50;99.90;;;;;;5062202;28;20458;-81
2022/05/02 03:32:20;;;;;;;7.27;6.50;;;12.50;99.90;;;;;;5060167;28;21057;-80
2022/05/02 03:34:50;;;;;;;9.93;8.03;;;12.50;99.90;;;;;;5063219;28;20467;-81
2022/05/02 03:37:18;;;;;;;10.30;7.90;;;12.50;99.90;;;;;;5059881;28;20545;-80
2022/05/02 03:39:46;;;;;;;9.73;7.50;;;12.50;99.90;;;;;;5067504;28;20462;-80
2022/05/02 03:42:14;;;;;;;9.37;7.63;;;12.50;99.90;;;;;;5066788;28;20974;-80
2022/05/02 03:44:43;;;;;;;8.23;7.27;;;12.50;99.90;;;;;;5061359;28;20453;-80
2022/05/02 03:47:11;;;;;;;8.93;7.37;;;12.40;99.90;;;;;;5060102;28;20455;-79
2022/05/02 03:49:39;;;;;;;9.83;7.33;;;12.50;99.90;;;;;;5062694;28;20828;-80
2022/05/02 03:52:09;;;;;;;10.50;9.23;;;12.40;99.90;;;;;;5061048;28;20522;-80
2022/05/02 03:54:37;;;;;;;9.20;7.30;;;12.40;99.90;;;;;;5055891;28;20484;-80
2022/05/02 03:57:06;;;;;;;8.77;7.83;;;12.40;99.90;;;;;;5061193;28;20470;-80
2022/05/02 03:59:34;;;;;;;14.43;7.67;;;12.40;99.90;;;;;;5061033;28;20465;-81
2022/05/02 04:02:02;;;;;;;10.07;7.80;;;12.30;99.90;;;;;;5056183;28;20547;-80
2022/05/02 04:04:30;;;;;;;9.27;6.93;;;12.30;99.90;;;;;;5062843;28;20512;-80
2022/05/02 04:06:59;;;;;;;9.87;7.43;;;12.20;99.90;;;;;;5060796;28;20467;-80
2022/05/02 04:09:28;;;;;;;9.80;7.63;;;12.20;99.90;;;;;;5063963;28;20455;-78
2022/05/02 04:11:57;;;;;;;8.97;6.77;;;12.20;99.90;;;;;;5055469;28;20470;-79
2022/05/02 04:14:25;;;;;;;9.80;7.57;;;12.10;99.90;;;;;;5056841;28;20439;-80
2022/05/02 04:16:53;;;;;;;10.00;7.30;;;12.20;99.90;;;;;;5058825;28;21040;-80
2022/05/02 04:19:22;;;;;;;9.23;7.17;;;12.20;99.90;;;;;;5060269;28;20446;-81
2022/05/02 04:21:50;;;;;;;9.23;7.00;;;12.20;99.90;;;;;;5058353;28;20470;-80
2022/05/02 04:24:18;;;;;;;8.93;7.37;;;12.20;99.90;;;;;;5061237;28;20478;-79
2022/05/02 04:26:48;;;;;;;8.97;7.17;;;12.30;99.90;;;;;;5062488;28;20535;-82
2022/05/02 04:29:16;;;;;;;9.30;7.63;;;12.30;99.90;;;;;;5059166;28;20450;-79
2022/05/02 04:31:44;;;;;;;10.50;6.93;;;12.20;99.90;;;;;;5093493;28;20473;-79
2022/05/02 04:34:14;;;;;;;10.60;8.03;;;12.20;99.90;;;;;;5057247;28;20474;-79
2022/05/02 04:36:42;;;;;;;7.90;6.73;;;12.20;99.90;;;;;;5058523;28;20450;-78
2022/05/02 04:39:10;;;;;;;9.07;7.50;;;12.20;99.90;;;;;;5052914;28;20443;-78
2022/05/02 04:41:38;;;;;;;9.87;8.87;;;12.20;99.90;;;;;;5057342;28;20487;-78
2022/05/02 04:44:07;;;;;;;9.83;7.57;;;12.20;99.90;;;;;;5059492;28;20905;-80
2022/05/02 04:46:36;;;;;;;9.47;7.60;;;12.30;99.90;;;;;;5061578;28;20470;-80
2022/05/02 04:49:04;;;;;;;8.70;7.03;;;12.30;99.90;;;;;;5055824;28;20515;-80
2022/05/02 04:51:32;;;;;;;9.30;7.17;;;12.30;99.90;;;;;;5062947;28;20482;-80
2022/05/02 04:54:00;;;;;;;10.37;8.00;;;12.40;99.90;;;;;;5060002;28;20449;-78
2022/05/02 04:56:28;;;;;;;10.90;8.73;;;12.40;99.90;;;;;;5061198;28;20456;-79
2022/05/02 04:58:57;;;;;;;9.83;8.00;;;12.30;99.90;;;;;;5061309;28;20462;-78
2022/05/02 05:01:26;;;;;;;11.13;8.90;;;12.40;99.90;;;;;;5057737;28;20464;-80
2022/05/02 05:03:54;;;;;;;9.60;8.13;;;12.40;99.90;;;;;;5055402;28;20479;-79
2022/05/02 05:06:23;;;;;;;9.53;7.30;;;12.30;99.90;;;;;;5060210;28;20981;-77
2022/05/02 05:08:51;;;;;;;10.27;8.00;;;12.30;99.90;;;;;;5061757;28;20455;-79
2022/05/02 05:11:41;;;;;;;9.10;7.57;;;12.40;99.90;;;;;;5063155;28;20481;-78
2022/05/02 05:17:16;;;;;;;11.77;10.43;;;12.50;99.90;;;;;;5058623;28;20481;-79
2022/05/02 05:20:04;;;;;;;13.13;9.87;;;12.60;99.90;;;;;;5064392;28;20455;-78
2022/05/02 05:23:00;;;;;;;9.47;8.53;;;12.60;99.90;;;;;;5062640;28;21044;-78
2022/05/02 05:25:49;;;;;;;9.43;8.20;;;12.70;99.90;;;;;;5061274;28;20465;-77
2022/05/02 05:28:41;;;;;;;11.80;7.63;;;12.70;99.90;;;;;;5057854;28;20454;-79
2022/05/02 05:31:26;;;;;;;8.57;7.60;;;12.70;99.90;;;;;;5054679;28;20507;-79
2022/05/02 05:34:05;;;;;;;10.47;8.20;;;12.70;99.90;;;;;;5042555;28;20463;-79
2022/05/02 05:36:43;;;;;;;10.20;8.07;;;12.80;99.90;;;;;;5055659;28;20463;-79
2022/05/02 05:39:16;;;;;;;10.40;7.87;;;12.80;99.90;;;;;;5052006;28;20450;-78
2022/05/02 05:42:02;;;;;;;11.23;7.63;;;12.80;99.90;;;;;;5059673;28;20480;-78
2022/05/02 05:44:43;;;;;;;10.53;8.00;;;12.80;99.90;;;;;;5064270;28;20466;-78
2022/05/02 05:47:28;;;;;;;10.13;8.60;;;12.80;99.90;;;;;;5061729;28;20508;-79
2022/05/02 05:50:17;;;;;;;10.10;7.30;;;12.90;99.90;;;;;;5064443;28;20458;-79
2022/05/02 05:52:58;;;;;;;12.10;7.53;;;12.90;99.90;;;;;;5058666;28;20542;-79
2022/05/02 05:55:35;;;;;;;9.80;7.33;;;12.90;99.90;;;;;;5057127;28;20453;-79
2022/05/02 05:58:12;;;;;;;10.60;7.70;;;12.90;99.90;;;;;;5057471;28;21055;-80
2022/05/02 06:00:45;;;;;;;10.40;7.87;;;12.90;99.90;;;;;;5058777;28;20474;-78
2022/05/02 06:03:15;;;;;;;11.33;7.77;;;13.00;99.90;;;;;;5056698;28;21716;-79
2022/05/02 06:05:47;;;;;;;12.83;8.10;;;13.10;99.90;;;;;;5058813;28;20977;-80
2022/05/02 06:08:19;;;;;;;9.60;7.70;;;13.30;99.90;;;;;;5056156;28;20450;-79
2022/05/02 06:10:47;;;;;;;12.87;9.00;;;13.30;99.90;;;;;;5059890;28;20479;-78
2022/05/02 06:13:17;;;;;;;9.70;7.17;;;13.30;99.90;;;;;;5056831;28;20466;-78
2022/05/02 06:18:55;;;;;;;13.00;8.73;;;13.50;99.90;;;;;;5063976;28;20447;-78
2022/05/02 06:21:25;;;;;;;11.93;8.00;;;13.60;99.90;;;;;;5061971;28;20480;-78
2022/05/02 06:23:53;;;;;;;13.70;9.27;;;13.60;99.90;;;;;;5064018;28;21006;-78
2022/05/02 06:26:24;;;;;;;10.07;8.57;;;13.60;99.90;;;;;;5058053;28;20459;-79
2022/05/02 06:28:53;;;;;;;10.10;8.57;;;13.70;99.90;;;;;;5061949;28;20525;-78
2022/05/02 06:31:26;;;;;;;9.97;8.90;;;13.90;99.90;;;;;;5059402;28;20470;-79
2022/05/02 06:33:57;;;;;;;10.50;9.40;;;14.00;99.90;;;;;;5062687;28;21109;-79
2022/05/02 06:36:52;;;;;;;12.50;8.90;;;14.20;99.90;;;;;;5058607;28;20469;-79
2022/05/02 06:39:33;;;;;;;10.83;8.70;;;14.40;99.90;;;;;;5057929;28;21135;-79
2022/05/02 06:42:17;;;;;;;12.40;10.17;;;14.60;99.90;;;;;;5060067;28;20503;-77
2022/05/02 06:45:04;;;;;;;10.60;9.10;;;14.80;99.90;;;;;;5060294;28;20535;-79
2022/05/02 06:47:42;;;;;;;11.00;9.80;;;15.00;99.90;;;;;;5061005;28;21068;-78
2022/05/02 06:50:12;;;;;;;13.30;10.17;;;15.20;99.90;;;;;;5056164;28;20510;-78
2022/05/02 06:52:52;;;;;;;10.57;8.73;;;15.40;99.90;;;;;;5063459;28;20732;-78
2022/05/02 06:55:30;;;;;;;11.83;8.80;;;15.50;99.90;;;;;;5054343;28;20454;-78
2022/05/02 06:58:11;;;;;;;10.83;9.03;;;15.70;99.90;;;;;;5058268;28;20458;-79
2022/05/02 07:00:49;;;;;;;11.63;9.03;;;15.80;99.90;;;;;;5061183;28;20473;-78
2022/05/02 07:03:36;;;;;;;10.53;9.43;;;16.00;99.90;;;;;;5056370;28;20463;-79
2022/05/02 07:06:10;;;;;;;11.00;9.20;;;16.10;99.90;;;;;;5056929;28;20519;-79
2022/05/02 07:08:47;;;;;;;10.87;8.97;;;16.20;99.90;;;;;;5060581;28;20480;-79
2022/05/02 07:11:22;;;;;;;11.37;8.80;;;16.30;99.90;;;;;;5058375;28;20541;-79
2022/05/02 07:14:03;;;;;;;12.13;8.80;;;16.40;99.90;;;;;;5062020;28;20453;-80
2022/05/02 07:16:34;;;;;;;13.63;9.60;;;16.50;99.90;;;;;;5059208;28;20991;-80
2022/05/02 07:19:30;;;;;;;12.57;9.87;;;16.60;99.90;;;;;;5062627;28;20481;-79
2022/05/02 07:22:02;;;;;;;11.37;8.33;;;16.70;99.90;;;;;;5058882;28;20476;-78
2022/05/02 07:24:47;;;;;;;9.60;8.33;;;16.90;99.90;;;;;;5060537;28;20468;-78
2022/05/02 07:27:28;;;;;;;9.83;8.80;;;16.90;99.90;;;;;;5056732;28;20463;-79
2022/05/02 07:29:59;;;;;;;12.83;8.97;;;17.10;99.90;;;;;;5065416;28;20829;-78
2022/05/02 07:32:28;;;;;;;12.03;9.60;;;17.30;99.90;;;;;;5062424;28;20520;-78
2022/05/02 07:34:57;;;;;;;11.57;9.23;;;17.30;99.90;;;;;;5059690;28;20934;-78
2022/05/02 07:37:26;;;;;;;10.10;9.00;;;17.40;99.90;;;;;;5058386;28;20446;-80
2022/05/02 07:39:58;;;;;;;11.07;9.27;;;17.50;99.90;;;;;;5061787;28;20455;-77
2022/05/02 07:42:31;;;;;;;9.17;8.27;;;17.40;99.90;;;;;;5065032;28;20465;-78
2022/05/02 07:45:02;;;;;;;9.17;8.27;;;17.50;99.90;;;;;;5061643;28;21242;-78
2022/05/02 07:47:33;;;;;;;10.90;9.40;;;17.50;99.90;;;;;;5058366;28;21293;-78
2022/05/02 07:50:03;;;;;;;8.30;7.50;;;17.50;99.90;;;;;;5060978;28;21135;-80
2022/05/02 07:52:35;;;;;;;9.73;8.10;;;17.50;99.90;;;;;;5060007;28;20529;-79
2022/05/02 07:55:05;;;;;;;13.27;9.00;;;17.50;99.90;;;;;;5057880;28;20547;-78
2022/05/02 07:57:37;;;;;;;10.23;7.93;;;17.50;99.90;;;;;;5058691;28;20457;-79
2022/05/02 08:00:08;;;;;;;8.63;7.83;;;17.40;99.90;;;;;;5058653;28;20462;-78
2022/05/02 08:02:36;;;;;;;12.60;10.00;;;17.30;99.90;;;;;;5060773;28;20897;-78
2022/05/02 08:05:06;;;;;;;9.97;8.97;;;17.30;99.90;;;;;;5060232;28;20481;-78
2022/05/02 08:07:36;;;;;;;8.67;7.00;;;17.20;99.90;;;;;;5058686;28;20445;-79
2022/05/02 08:10:39;;;;;;;8.93;7.40;;;17.30;99.90;;;;;;5059407;28;20447;-79
2022/05/02 08:13:26;;;;;;;8.93;8.13;;;17.30;99.90;;;;;;5064350;28;20453;-79
2022/05/02 08:16:01;;;;;;;9.17;7.17;;;17.40;99.90;;;;;;5059688;28;21293;-78
2022/05/02 08:19:01;;;;;;;8.80;8.00;;;17.50;99.90;;;;;;5062733;28;20445;-78
2022/05/02 08:21:33;;;;;;;7.00;6.33;;;17.40;99.90;;;;;;5052148;28;20485;-78
2022/05/02 08:27:43;;;;;;;9.97;7.63;;;17.60;99.90;;;;;;5059406;28;20479;-78
2022/05/02 08:30:17;;;;;;;7.30;6.60;;;17.70;99.90;;;;;;5058711;28;20501;-77
2022/05/02 08:33:00;;;;;;;7.70;6.57;;;17.70;99.90;;;;;;5062646;28;21029;-79
2022/05/02 08:35:47;;;;;;;7.13;6.50;;;17.80;99.90;;;;;;5060669;28;20449;-79
2022/05/02 08:38:29;;;;;;;7.73;6.37;;;17.80;99.90;;;;;;5053683;28;20481;-78
2022/05/02 08:41:58;;;;;;;7.93;7.03;;;17.90;99.90;;;;;;5060652;28;20488;-80
2022/05/02 08:45:09;;;;;;;7.33;6.43;;;17.80;99.90;;;;;;4990412;28;20464;-78
2022/05/02 08:48:09;;;;;;;6.37;5.77;;;17.70;99.90;;;;;;5057996;28;20453;-78
2022/05/02 08:51:00;;;;;;;6.30;5.03;;;17.80;99.90;;;;;;5056370;28;20483;-78
2022/05/02 08:54:20;;;;;;;6.37;5.73;;;17.90;99.90;;;;;;5055427;28;20551;-79
2022/05/02 08:57:22;;;;;;;5.40;4.90;;;18.00;99.90;;;;;;5033999;28;20462;-78
2022/05/02 09:00:07;;;;;;;5.23;4.70;;;17.90;99.90;;;;;;5035326;28;20460;-80
2022/05/02 09:03:13;;;;;;;5.37;4.83;;;17.90;99.90;;;;;;5057524;28;20457;-78
2022/05/02 09:06:29;;;;;;;6.00;4.90;;;18.00;99.90;;;;;;5055054;28;20568;-77
2022/05/02 09:09:37;;;;;;;4.40;4.00;;;18.00;99.90;;;;;;5058411;28;20456;-80
2022/05/02 09:12:38;;;;;;;3.40;3.10;;;18.00;99.90;;;;;;5056597;28;20493;-79
2022/05/02 09:15:39;;;;;;;5.00;4.60;;;18.10;99.90;;;;;;5085356;28;20462;-78
2022/05/02 09:18:49;;;;;;;5.37;4.87;;;18.10;99.90;;;;;;5055276;28;20450;-80
2022/05/02 09:21:29;;;;;;;4.77;4.13;;;18.20;99.90;;;;;;5059871;28;20492;-80
2022/05/02 09:24:28;;;;;;;6.90;4.70;;;18.20;99.90;;;;;;5060391;28;20488;-79
2022/05/02 09:27:36;;;;;;;4.27;3.40;;;18.20;99.90;;;;;;5065768;28;20471;-80
2022/05/02 09:30:43;;;;;;;4.77;4.33;;;18.20;99.90;;;;;;5049111;28;20493;-80
2022/05/02 09:33:31;;;;;;;6.57;4.63;;;18.30;99.90;;;;;;5047898;28;20454;-80
2022/05/02 09:36:15;;;;;;;5.73;5.17;;;18.30;99.90;;;;;;5063521;28;20519;-79
2022/05/02 09:38:51;;;;;;;4.03;3.63;;;18.20;99.90;;;;;;5061757;28;20485;-80
2022/05/02 09:41:53;;;;;;;3.63;3.33;;;18.20;99.90;;;;;;5064190;28;20760;-78
2022/05/02 09:51:03;;;;;;;3.90;3.37;;;18.50;99.90;;;;;;5064260;28;20464;-80
2022/05/02 09:53:47;;;;;;;4.33;3.93;;;18.60;99.90;;;;;;5067922;28;20450;-81
2022/05/02 09:56:38;;;;;;;3.30;3.00;;;18.70;99.90;;;;;;5067157;28;20528;-81
2022/05/02 09:59:11;;;;;;;4.07;3.67;;;18.70;99.90;;;;;;5068863;28;20453;-79
2022/05/02 10:01:47;;;;;;;4.63;4.23;;;18.80;99.90;;;;;;5068165;28;20548;-80
2022/05/02 10:04:31;;;;;;;4.77;4.37;;;18.80;99.90;;;;;;5065867;28;20466;-80
2022/05/02 10:07:06;;;;;;;4.37;3.97;;;18.70;99.90;;;;;;5066549;28;20479;-80
2022/05/02 10:10:02;;;;;;;4.37;3.97;;;18.90;99.90;;;;;;5068849;28;20561;-80
2022/05/02 10:12:41;;;;;;;3.23;2.73;;;19.00;99.90;;;;;;5064270;28;20485;-82
2022/05/02 10:15:46;;;;;;;2.90;2.70;;;18.90;99.90;;;;;;5059323;28;21495;-79
2022/05/02 10:18:36;;;;;;;2.43;2.33;;;18.80;99.90;;;;;;5068072;28;20487;-79
2022/05/02 10:21:09;;;;;;;3.57;3.27;;;18.80;99.90;;;;;;5069009;28;20478;-79
2022/05/02 10:24:03;;;;;;;3.30;3.00;;;18.80;99.90;;;;;;5069107;28;20542;-83
2022/05/02 10:26:36;;;;;;;3.23;2.93;;;18.90;99.90;;;;;;5060634;28;20884;-79
2022/05/02 10:29:37;;;;;;;3.30;3.00;;;18.90;99.90;;;;;;5067646;28;20457;-80
2022/05/02 10:32:08;;;;;;;3.20;3.00;;;18.90;99.90;;;;;;5063991;28;20474;-81
2022/05/02 10:34:39;;;;;;;3.03;2.70;;;18.90;99.90;;;;;;5065930;28;20492;-80
2022/05/02 10:37:08;;;;;;;3.37;3.10;;;18.90;99.90;;;;;;5064439;28;20439;-80
2022/05/02 10:39:46;;;;;;;3.30;3.10;;;18.90;99.90;;;;;;5068305;28;20945;-80
2022/05/02 10:42:19;;;;;;;3.80;3.47;;;18.80;99.90;;;;;;5069346;28;20462;-80
2022/05/02 10:44:52;;;;;;;3.83;3.47;;;18.60;99.90;;;;;;5067333;28;20469;-80
2022/05/02 10:47:21;;;;;;;2.73;2.53;;;18.40;99.90;;;;;;5063868;28;20485;-80
2022/05/02 10:50:04;;;;;;;3.60;2.77;;;18.40;99.90;;;;;;5063594;28;20465;-81
2022/05/02 10:52:54;;;;;;;3.73;2.97;;;18.50;99.90;;;;;;5070061;28;20449;-81
2022/05/02 10:55:31;;;;;;;4.67;3.80;;;18.60;99.90;;;;;;5062633;28;20636;-81
2022/05/02 10:58:02;;;;;;;3.80;3.20;;;18.60;99.90;;;;;;5068321;28;20515;-80
2022/05/02 11:00:31;;;;;;;3.70;3.40;;;18.50;99.90;;;;;;5067795;28;20485;-81
2022/05/02 11:03:18;;;;;;;4.30;3.90;;;18.50;99.90;;;;;;5067606;28;20460;-80
2022/05/02 11:06:03;;;;;;;2.90;2.40;;;18.40;99.90;;;;;;5065152;28;20461;-78
2022/05/02 11:08:37;;;;;;;2.60;2.27;;;18.40;99.90;;;;;;5060356;28;20449;-79
2022/05/02 11:11:08;;;;;;;4.23;3.60;;;18.40;99.90;;;;;;5062949;28;20487;-79
2022/05/02 11:13:45;;;;;;;3.57;3.27;;;18.40;99.90;;;;;;5060054;28;20438;-78
2022/05/02 11:16:22;;;;;;;4.23;3.83;;;18.40;99.90;;;;;;5058357;28;21332;-78
2022/05/02 11:21:57;;;;;;;4.67;4.10;;;18.50;99.90;;;;;;5059779;28;20475;-78
2022/05/02 11:24:39;;;;;;;8.37;4.83;;;18.40;99.90;;;;;;5061752;28;20466;-78
2022/05/02 11:27:28;;;;;;;5.10;4.07;;;18.30;99.90;;;;;;5058115;28;20485;-79
2022/05/02 11:30:03;;;;;;;3.67;3.03;;;18.30;99.90;;;;;;5061075;28;20465;-78
2022/05/02 11:32:44;;;;;;;2.80;2.60;;;18.30;99.90;;;;;;5061344;28;20446;-79
2022/05/02 11:35:14;;;;;;;3.00;2.80;;;18.40;99.90;;;;;;5057313;28;20465;-79
2022/05/02 11:37:54;;;;;;;3.20;2.90;;;18.40;99.90;;;;;;5061460;28;20434;-79
2022/05/02 11:40:29;;;;;;;3.47;2.60;;;18.50;99.90;;;;;;5058681;28;20488;-79
2022/05/02 11:42:59;;;;;;;5.60;4.00;;;18.50;99.90;;;;;;5062627;28;20461;-78
2022/05/02 11:45:43;;;;;;;4.87;2.90;;;18.50;99.90;;;;;;5087874;28;20467;-80
2022/05/02 11:48:31;;;;;;;3.43;3.13;;;18.50;99.80;;;;;;5059083;28;20482;-80
2022/05/02 11:51:04;;;;;;;2.60;2.40;;;18.50;99.90;;;;;;5058602;28;20632;-80
2022/05/02 11:53:35;;;;;;;2.80;2.50;;;18.70;99.90;;;;;;5059653;28;20446;-79
2022/05/02 11:56:05;;;;;;;2.80;2.50;;;18.90;99.90;;;;;;5055002;28;20808;-80
2022/05/02 11:58:45;;;;;;;3.53;3.10;;;18.90;99.90;;;;;;5061630;28;20450;-80
2022/05/02 12:01:26;;;;;;;3.23;2.30;;;19.00;99.90;;;;;;5058966;28;20485;-79
2022/05/02 12:04:00;;;;;;;2.53;2.33;;;19.10;99.90;;;;;;5058261;28;20473;-79
2022/05/02 12:06:37;;;;;;;3.03;2.83;;;19.00;99.90;;;;;;5057762;28;20472;-80
2022/05/02 12:09:07;;;;;;;3.20;2.47;;;19.00;99.90;;;;;;5060400;28;21180;-79
2022/05/02 12:11:53;;;;;;;2.57;2.37;;;19.00;99.90;;;;;;5061081;28;20474;-79
2022/05/02 12:14:24;;;;;;;3.60;3.30;;;19.10;99.90;;;;;;5064463;28;20498;-78
2022/05/02 12:17:11;;;;;;;3.40;3.10;;;19.20;99.90;;;;;;5064694;28;20459;-80
2022/05/02 12:19:40;;;;;;;2.40;2.20;;;19.20;99.90;;;;;;5061555;28;20508;-80
2022/05/02 12:22:14;;;;;;;3.77;3.43;;;19.30;99.90;;;;;;5070852;28;20869;-78
2022/05/02 12:24:45;;;;;;;2.50;2.30;;;19.20;99.90;;;;;;5076669;28;21020;-80
2022/05/02 12:27:14;;;;;;;3.90;3.50;;;19.20;99.90;;;;;;5059338;28;20578;-79
2022/05/02 12:29:44;;;;;;;4.00;2.87;;;19.20;99.90;;;;;;5060556;28;20477;-80
2022/05/02 12:32:14;;;;;;;3.10;2.80;;;19.20;99.90;;;;;;5059624;28;22983;-80
2022/05/02 12:34:46;;;;;;;2.10;1.90;;;19.20;99.90;;;;;;5088130;28;20508;-78
2022/05/02 12:37:20;;;;;;;5.10;2.80;;;19.30;99.90;;;;;;5057265;28;20462;-80
2022/05/02 12:39:51;;;;;;;3.07;2.87;;;19.40;99.90;;;;;;5060039;28;20446;-79
2022/05/02 12:42:24;;;;;;;2.80;2.50;;;19.40;99.90;;;;;;5059174;28;20492;-79
2022/05/02 12:45:02;;;;;;;4.23;3.47;;;19.50;99.90;;;;;;5060680;28;20477;-79
2022/05/02 12:47:35;;;;;;;2.97;2.67;;;19.30;97.90;;;;;;5058510;28;20485;-79
2022/05/02 12:50:05;;;;;;;3.17;2.80;;;19.20;98.20;;;;;;5059573;28;20462;-78
2022/05/02 12:52:42;;;;;;;2.57;2.37;;;19.20;97.70;;;;;;5059532;28;20451;-80
2022/05/02 12:55:12;;;;;;;2.20;2.00;;;19.20;98.90;;;;;;5059522;28;20731;-79
2022/05/02 13:00:35;;;;;;;2.70;2.50;;;19.30;99.90;;;;;;5060440;28;20467;-80
2022/05/02 13:03:18;;;;;;;4.70;3.10;;;19.30;99.90;;;;;;5057688;28;20474;-78
2022/05/02 13:05:55;;;;;;;2.90;2.60;;;19.40;99.50;;;;;;5054423;28;20498;-80
2022/05/02 13:08:33;;;;;;;3.10;2.90;;;19.40;97.90;;;;;;5059687;28;20489;-79
2022/05/02 13:11:07;;;;;;;2.93;2.73;;;19.30;98.10;;;;;;5061446;28;20470;-80
2022/05/02 13:13:42;;;;;;;2.63;2.30;;;19.20;96.00;;;;;;5064091;28;20450;-79
2022/05/02 13:16:17;;;;;;;2.40;2.20;;;19.30;97.50;;;;;;5063850;28;20479;-79
2022/05/02 13:18:47;;;;;;;2.90;2.70;;;19.40;99.10;;;;;;5062142;28;20450;-79
2022/05/02 13:21:17;;;;;;;2.33;2.23;;;19.40;97.50;;;;;;5048586;28;20900;-80
2022/05/02 13:23:47;;;;;;;3.80;3.50;;;19.40;97.20;;;;;;5059826;28;20516;-76
2022/05/02 13:26:44;;;;;;;2.47;2.27;;;19.20;95.30;;;;;;5061600;28;20447;-79
2022/05/02 13:29:26;;;;;;;2.13;2.03;;;19.20;96.50;;;;;;5061909;28;20482;-79
2022/05/02 13:32:00;;;;;;;3.10;2.83;;;19.40;96.60;;;;;;5062792;28;20485;-79
2022/05/02 13:34:43;;;;;;;2.50;2.30;;;19.30;95.50;;;;;;5062696;28;20832;-78
2022/05/02 13:37:22;;;;;;;2.13;2.03;;;19.30;97.50;;;;;;5061112;28;20875;-79
2022/05/02 13:40:03;;;;;;;3.00;2.70;;;19.40;97.00;;;;;;5062148;28;20484;-78
2022/05/02 13:42:41;;;;;;;2.40;2.20;;;19.30;94.20;;;;;;5064644;28;20446;-78
2022/05/02 13:45:18;;;;;;;2.13;1.93;;;19.30;92.70;;;;;;5061432;28;20454;-79
2022/05/02 13:47:53;;;;;;;3.40;2.50;;;19.30;91.40;;;;;;5064430;28;21080;-80
2022/05/02 13:50:26;;;;;;;2.70;2.50;;;19.20;91.40;;;;;;5060146;28;20479;-80
2022/05/02 13:53:05;;;;;;;2.40;2.20;;;19.20;90.20;;;;;;5063792;28;21265;-79
2022/05/02 13:55:59;;;;;;;2.40;2.20;;;19.20;91.30;;;;;;5053637;28;21078;-80